Time;durP1;ratioP1;P1;durP2;ratioP2;P2;SDS_P1;SDS_P2;PMS_P1;PMS_P2;Temp;Humidity;BMP_temperature;BMP_pressure;BME280_temperature;BME280_humidity;BME280_pressure;Samples;Min_cycle;Max_cycle;Signal;HPM_P1;HPM_P2
2022/04/09 00:00:55;;;;;;;0.30;0.20;;;;;;;13.35;82.49;94606.44;5094601;28;20432;-51
2022/04/09 00:03:24;;;;;;;0.30;0.20;;;;;;;13.63;81.35;94623.06;5094579;28;20830;-51
2022/04/09 00:05:52;;;;;;;0.30;0.20;;;;;;;13.60;81.55;94618.34;5094583;28;20935;-51
2022/04/09 00:08:21;;;;;;;0.30;0.20;;;;;;;13.46;80.79;94600.88;5094297;28;20989;-50
2022/04/09 00:10:49;;;;;;;0.30;0.30;;;;;;;13.52;83.79;94610.28;5094318;28;20698;-51
2022/04/09 00:13:19;;;;;;;0.30;0.20;;;;;;;13.80;78.65;94617.03;5094294;28;20515;-51
2022/04/09 00:15:48;;;;;;;0.40;0.30;;;;;;;13.53;78.95;94599.34;5094309;28;20889;-51
2022/04/09 00:18:18;;;;;;;0.30;0.20;;;;;;;13.00;82.89;94617.09;5094229;28;20925;-51
2022/04/09 00:20:46;;;;;;;0.40;0.30;;;;;;;13.03;85.87;94627.16;5094175;28;20463;-51
2022/04/09 00:23:14;;;;;;;0.40;0.30;;;;;;;12.77;88.74;94610.19;5094317;28;20515;-50
2022/04/09 00:25:43;;;;;;;0.30;0.20;;;;;;;13.14;84.69;94601.91;5093770;28;20444;-51
2022/04/09 00:28:11;;;;;;;0.40;0.30;;;;;;;13.14;87.35;94616.00;5094166;28;20513;-51
2022/04/09 00:30:40;;;;;;;0.30;0.20;;;;;;;13.43;81.29;94615.59;5093556;28;20511;-51
2022/04/09 00:33:08;;;;;;;0.43;0.43;;;;;;;13.12;86.76;94618.16;5093931;28;20436;-51
2022/04/09 00:35:38;;;;;;;0.40;0.27;;;;;;;12.18;96.31;94617.25;5094106;28;20519;-51
2022/04/09 00:38:07;;;;;;;0.30;0.23;;;;;;;12.06;98.85;94580.56;5093805;28;20557;-52
2022/04/09 00:40:35;;;;;;;0.30;0.30;;;;;;;12.07;100.00;94586.63;5093578;28;20446;-51
2022/04/09 00:43:03;;;;;;;0.30;0.20;;;;;;;12.53;93.44;94581.97;5093563;28;20516;-51
2022/04/09 00:45:32;;;;;;;0.40;0.30;;;;;;;12.60;95.50;94619.56;5093743;28;20968;-51
2022/04/09 00:48:01;;;;;;;0.30;0.20;;;;;;;12.63;93.42;94584.41;5093421;28;20443;-51
2022/04/09 00:50:29;;;;;;;0.30;0.20;;;;;;;12.83;90.45;94608.97;5093639;28;20503;-50
2022/04/09 00:53:02;;;;;;;0.40;0.30;;;;;;;12.09;99.64;94597.78;5093542;28;20428;-50
2022/04/09 00:58:20;;;;;;;0.40;0.30;;;;;;;11.94;95.53;94519.16;5093442;28;20458;-50
2022/04/09 01:00:49;;;;;;;0.37;0.23;;;;;;;12.66;95.20;94588.34;5093380;28;20945;-51
2022/04/09 01:03:19;;;;;;;0.30;0.20;;;;;;;12.89;92.73;94592.59;5093569;28;20474;-51
2022/04/09 01:05:49;;;;;;;0.30;0.20;;;;;;;12.93;89.85;94600.78;5093377;28;20912;-51
2022/04/09 01:08:19;;;;;;;0.60;0.30;;;;;;;12.44;94.42;94602.38;5093585;28;20796;-51
2022/04/09 01:10:50;;;;;;;0.30;0.30;;;;;;;12.66;92.10;94586.47;5092893;28;20582;-51
2022/04/09 01:13:20;;;;;;;0.30;0.20;;;;;;;12.45;90.36;94513.56;5093122;28;20428;-51
2022/04/09 01:15:48;;;;;;;0.30;0.20;;;;;;;12.98;88.27;94579.38;5093444;28;20449;-52
2022/04/09 01:18:18;;;;;;;0.77;0.30;;;;;;;13.16;84.19;94583.75;5093138;28;20415;-51
2022/04/09 01:20:46;;;;;;;0.40;0.30;;;;;;;12.63;91.30;94587.06;5093225;28;20429;-51
2022/04/09 01:23:16;;;;;;;0.30;0.20;;;;;;;12.77;90.42;94593.13;5093059;28;20448;-51
2022/04/09 01:25:45;;;;;;;0.30;0.20;;;;;;;12.75;91.36;94597.94;5093211;28;20444;-51
2022/04/09 01:28:13;;;;;;;0.30;0.20;;;;;;;12.77;89.96;94602.19;5092890;28;20424;-51
2022/04/09 01:30:43;;;;;;;0.50;0.50;;;;;;;12.82;88.95;94592.25;5092754;28;20537;-51
2022/04/09 01:33:15;;;;;;;0.30;0.20;;;;;;;12.62;93.70;94600.66;5093172;28;20448;-51
2022/04/09 01:35:44;;;;;;;0.30;0.20;;;;;;;12.75;90.23;94594.50;5092697;28;20432;-51
2022/04/09 01:38:13;;;;;;;0.30;0.20;;;;;;;12.45;93.25;94598.63;5092794;28;20511;-51
2022/04/09 01:40:43;;;;;;;0.30;0.20;;;;;;;12.13;98.83;94601.41;5092544;28;20519;-51
2022/04/09 01:43:12;;;;;;;0.70;0.70;;;;;;;12.16;97.43;94597.38;5092141;28;20447;-51
2022/04/09 01:45:40;;;;;;;0.30;0.30;;;;;;;12.20;98.32;94595.69;5092594;28;20428;-51
2022/04/09 01:48:08;;;;;;;0.30;0.20;;;;;;;12.43;95.36;94602.66;5092648;28;20920;-51
2022/04/09 01:50:37;;;;;;;0.30;0.20;;;;;;;12.44;95.70;94599.72;5092481;28;20468;-52
2022/04/09 01:53:05;;;;;;;0.30;0.20;;;;;;;12.57;92.22;94598.88;5092519;28;20463;-51
2022/04/09 01:55:34;;;;;;;0.50;0.40;;;;;;;12.50;94.03;94589.75;5092441;28;20433;-51
2022/04/09 01:58:04;;;;;;;0.40;0.37;;;;;;;12.39;94.57;94597.16;5092055;28;20947;-51
2022/04/09 02:00:32;;;;;;;0.40;0.30;;;;;;;12.37;94.95;94588.69;5092682;28;20832;-51
2022/04/09 02:03:01;;;;;;;0.30;0.30;;;;;;;12.40;92.15;94574.00;5092374;28;20421;-51
2022/04/09 02:05:29;;;;;;;0.40;0.30;;;;;;;11.73;100.00;94565.78;5092232;28;20462;-51
2022/04/09 02:07:58;;;;;;;0.40;0.30;;;;;;;11.46;100.00;94590.38;5092115;28;20475;-51
2022/04/09 02:10:27;;;;;;;0.30;0.20;;;;;;;11.98;100.00;94588.41;5091896;28;20530;-51
2022/04/09 02:12:56;;;;;;;0.33;0.27;;;;;;;11.83;100.00;94591.38;5092177;28;20433;-51
2022/04/09 02:15:26;;;;;;;0.30;0.20;;;;;;;11.97;100.00;94578.88;5092404;28;20791;-51
2022/04/09 02:17:54;;;;;;;0.30;0.20;;;;;;;11.33;100.00;94471.00;5092145;28;20511;-51
2022/04/09 02:20:23;;;;;;;5.40;1.03;;;;;;;12.21;95.81;94576.81;5091941;28;21032;-51
2022/04/09 02:22:51;;;;;;;0.50;0.30;;;;;;;11.89;100.00;94580.34;5092368;28;20452;-51
2022/04/09 02:25:19;;;;;;;0.90;0.90;;;;;;;12.04;100.00;94571.31;5091873;28;20429;-52
2022/04/09 02:27:48;;;;;;;0.30;0.20;;;;;;;11.89;99.21;94577.69;5091951;28;20485;-51
2022/04/09 02:30:16;;;;;;;0.30;0.20;;;;;;;11.98;96.35;94570.63;5091572;28;20837;-51
2022/04/09 02:32:48;;;;;;;6.80;0.30;;;;;;;11.95;94.43;94546.50;5091855;28;20511;-51
2022/04/09 02:35:18;;;;;;;0.30;0.20;;;;;;;12.18;94.23;94580.06;5091433;28;20457;-52
2022/04/09 02:37:46;;;;;;;0.40;0.20;;;;;;;11.97;98.11;94577.00;5092215;28;20493;-51
2022/04/09 02:40:15;;;;;;;0.30;0.20;;;;;;;11.64;98.77;94521.63;5091843;28;20855;-51
2022/04/09 02:42:44;;;;;;;0.30;0.30;;;;;;;11.79;97.84;94571.81;5092189;28;20452;-50
2022/04/09 02:45:13;;;;;;;0.40;0.30;;;;;;;11.34;100.00;94547.63;5091319;28;20967;-50
2022/04/09 02:47:42;;;;;;;0.40;0.40;;;;;;;11.49;100.00;94571.22;5091809;28;20788;-52
2022/04/09 02:50:12;;;;;;;0.40;0.30;;;;;;;11.18;100.00;94574.72;5092019;28;20547;-50
2022/04/09 02:52:42;;;;;;;0.90;0.53;;;;;;;11.37;100.00;94573.56;5091830;28;20966;-50
2022/04/09 02:55:10;;;;;;;0.60;0.60;;;;;;;11.07;100.00;94563.47;5095082;28;20468;-51
2022/04/09 02:57:40;;;;;;;0.40;0.40;;;;;;;11.33;100.00;94567.25;5095088;28;20431;-50
2022/04/09 03:00:12;;;;;;;0.50;0.40;;;;;;;11.48;100.00;94563.56;5096000;28;20412;-50
2022/04/09 03:02:41;;;;;;;0.40;0.30;;;;;;;11.59;100.00;94559.63;5095586;28;20424;-50
2022/04/09 03:05:13;;;;;;;0.40;0.30;;;;;;;11.45;100.00;94570.25;5095685;28;20926;-51
2022/04/09 03:07:42;;;;;;;0.40;0.30;;;;;;;10.23;100.00;94564.44;5095445;28;20438;-51
2022/04/09 03:10:11;;;;;;;0.40;0.30;;;;;;;9.60;100.00;94571.78;5095125;28;20575;-50
2022/04/09 03:12:43;;;;;;;0.87;0.87;;;;;;;9.80;100.00;94573.41;5095448;28;20485;-50
2022/04/09 03:15:13;;;;;;;0.40;0.30;;;;;;;10.12;100.00;94574.38;5095369;28;20428;-51
2022/04/09 03:17:42;;;;;;;0.33;0.23;;;;;;;9.75;100.00;94566.31;5095616;28;20861;-51
2022/04/09 03:20:12;;;;;;;0.40;0.30;;;;;;;10.55;100.00;94575.13;5095377;28;20970;-51
2022/04/09 03:22:45;;;;;;;0.30;0.20;;;;;;;10.89;100.00;94566.94;5095317;28;20503;-51
2022/04/09 03:25:14;;;;;;;0.37;0.30;;;;;;;11.05;100.00;94562.97;5095337;28;20916;-51
2022/04/09 03:27:43;;;;;;;0.60;0.60;;;;;;;10.91;100.00;94554.19;5095024;28;20424;-52
2022/04/09 03:30:12;;;;;;;0.30;0.20;;;;;;;11.19;100.00;94539.94;5095003;28;20464;-52
2022/04/09 03:32:42;;;;;;;0.40;0.40;;;;;;;10.57;100.00;94556.31;5094748;28;20483;-52
2022/04/09 03:35:12;;;;;;;0.70;0.70;;;;;;;10.70;100.00;94543.09;5095331;28;20503;-52
2022/04/09 03:37:41;;;;;;;0.30;0.20;;;;;;;10.42;100.00;94569.75;5094898;28;20456;-52
2022/04/09 03:40:12;;;;;;;0.50;0.30;;;;;;;9.91;100.00;94483.03;5095338;28;20421;-51
2022/04/09 03:42:41;;;;;;;0.30;0.30;;;;;;;10.68;100.00;94565.66;5094867;28;20432;-51
2022/04/09 03:45:10;;;;;;;0.33;0.23;;;;;;;10.54;100.00;94570.13;5094572;28;20501;-51
2022/04/09 03:47:38;;;;;;;1.67;0.60;;;;;;;10.04;100.00;94574.97;5094859;28;20467;-51
2022/04/09 03:50:08;;;;;;;0.33;0.30;;;;;;;10.11;100.00;94572.78;5094721;28;20901;-50
2022/04/09 03:52:38;;;;;;;0.40;0.30;;;;;;;10.56;100.00;94555.50;5094466;28;20477;-51
2022/04/09 03:55:07;;;;;;;0.30;0.30;;;;;;;10.52;100.00;94573.06;5094658;28;20432;-51
2022/04/09 03:57:36;;;;;;;0.30;0.20;;;;;;;10.74;100.00;94561.88;5094786;28;20485;-50
2022/04/09 04:00:08;;;;;;;0.60;0.40;;;;;;;10.27;100.00;94464.03;5094717;28;20474;-51
2022/04/09 04:02:37;;;;;;;1.00;0.30;;;;;;;10.48;100.00;94564.09;5094806;28;20452;-50
2022/04/09 04:05:07;;;;;;;0.40;0.40;;;;;;;10.59;100.00;94557.59;5093336;28;21164;-51
2022/04/09 04:07:37;;;;;;;0.40;0.30;;;;;;;10.54;100.00;94548.91;5094382;28;20475;-50
2022/04/09 04:10:09;;;;;;;0.50;0.40;;;;;;;9.86;100.00;94570.44;5094118;28;20480;-51
2022/04/09 04:12:37;;;;;;;0.40;0.37;;;;;;;10.02;100.00;94563.88;5094006;28;20462;-52
2022/04/09 04:15:07;;;;;;;0.40;0.30;;;;;;;10.52;100.00;94561.69;5094249;28;20432;-52
2022/04/09 04:17:40;;;;;;;0.50;0.50;;;;;;;10.26;100.00;94557.78;5094169;28;20432;-52
2022/04/09 04:20:10;;;;;;;0.40;0.30;;;;;;;10.44;100.00;94560.47;5094093;28;20527;-52
2022/04/09 04:22:39;;;;;;;1.20;1.20;;;;;;;10.49;100.00;94564.88;5093682;28;20472;-52
2022/04/09 04:25:09;;;;;;;0.50;0.50;;;;;;;10.92;100.00;94576.97;5094008;28;20911;-52
2022/04/09 04:27:42;;;;;;;0.63;0.63;;;;;;;11.04;100.00;94579.97;5093955;28;20503;-52
2022/04/09 04:30:11;;;;;;;0.67;0.40;;;;;;;10.05;100.00;94573.09;5093838;28;20520;-52
2022/04/09 04:32:40;;;;;;;0.30;0.30;;;;;;;9.96;100.00;94574.81;5093773;28;20464;-52
2022/04/09 04:35:09;;;;;;;0.80;0.80;;;;;;;9.66;100.00;94583.88;5093396;28;20806;-52
2022/04/09 04:37:40;;;;;;;0.60;0.60;;;;;;;10.08;100.00;94572.53;5093719;28;20913;-52
2022/04/09 04:40:10;;;;;;;0.50;0.50;;;;;;;10.20;100.00;94583.53;5093855;28;20869;-52
2022/04/09 04:42:39;;;;;;;0.50;0.50;;;;;;;10.83;100.00;94565.44;5093932;28;20452;-52
2022/04/09 04:45:10;;;;;;;0.97;0.47;;;;;;;11.03;100.00;94541.25;5093673;28;20867;-51
2022/04/09 04:47:45;;;;;;;0.63;0.63;;;;;;;10.54;100.00;94467.59;5093003;28;20921;-50
2022/04/09 04:50:15;;;;;;;0.40;0.40;;;;;;;11.70;100.00;94554.97;5093382;28;20481;-51
2022/04/09 04:52:46;;;;;;;0.40;0.30;;;;;;;11.74;100.00;94556.72;5093620;28;20529;-51
2022/04/09 04:55:16;;;;;;;0.50;0.30;;;;;;;11.92;100.00;94552.41;5093643;28;20425;-51
2022/04/09 04:57:46;;;;;;;0.60;0.40;;;;;;;11.92;100.00;94494.00;5093571;28;20460;-51
2022/04/09 05:00:19;;;;;;;0.50;0.40;;;;;;;12.53;97.03;94546.63;5093565;28;20842;-51
2022/04/09 05:02:47;;;;;;;0.77;0.77;;;;;;;12.42;98.64;94551.38;5093484;28;20860;-51
2022/04/09 05:05:16;;;;;;;1.07;1.00;;;;;;;12.73;95.52;94554.94;5093534;28;20450;-51
2022/04/09 05:07:48;;;;;;;1.00;1.00;;;;;;;12.23;100.00;94556.03;5093452;28;20420;-51
2022/04/09 05:10:17;;;;;;;0.90;0.90;;;;;;;12.60;100.00;94562.94;5092844;28;20527;-51
2022/04/09 05:12:47;;;;;;;1.00;1.00;;;;;;;12.94;96.65;94557.13;5092974;28;20493;-51
2022/04/09 05:15:17;;;;;;;0.40;0.33;;;;;;;12.15;100.00;94562.03;5092946;28;20479;-51
2022/04/09 05:17:46;;;;;;;0.40;0.30;;;;;;;11.28;100.00;94572.66;5092576;28;21088;-51
2022/04/09 05:20:15;;;;;;;1.37;1.33;;;;;;;11.05;100.00;94570.94;5093185;28;20428;-51
2022/04/09 05:22:46;;;;;;;4.57;0.93;;;;;;;11.95;100.00;94568.56;5092816;28;21062;-51
2022/04/09 05:25:19;;;;;;;0.70;0.70;;;;;;;11.56;100.00;94575.38;5092746;28;20485;-51
2022/04/09 05:27:49;;;;;;;0.40;0.40;;;;;;;10.94;100.00;94462.69;5092910;28;20793;-51
2022/04/09 05:30:18;;;;;;;0.40;0.30;;;;;;;11.46;100.00;94541.84;5092543;28;20486;-51
2022/04/09 05:32:47;;;;;;;0.40;0.40;;;;;;;11.79;100.00;94569.91;5092443;28;20472;-51
2022/04/09 05:35:16;;;;;;;0.40;0.30;;;;;;;11.31;100.00;94436.78;5092700;28;20447;-51
2022/04/09 05:37:48;;;;;;;1.00;1.00;;;;;;;12.05;100.00;94552.41;5092760;28;20420;-51
2022/04/09 05:40:17;;;;;;;0.40;0.30;;;;;;;12.16;100.00;94571.59;5092731;28;20428;-51
2022/04/09 05:42:46;;;;;;;0.30;0.20;;;;;;;12.41;100.00;94488.69;5092648;28;20424;-51
2022/04/09 05:45:15;;;;;;;0.83;0.83;;;;;;;12.71;100.00;94549.13;5092290;28;20432;-51
2022/04/09 05:47:45;;;;;;;1.10;0.83;;;;;;;12.42;100.00;94575.28;5092773;28;20424;-51
2022/04/09 05:50:14;;;;;;;0.40;0.30;;;;;;;11.80;100.00;94565.41;5092604;28;20519;-52
2022/04/09 05:52:43;;;;;;;0.70;0.70;;;;;;;12.08;100.00;94554.47;5092308;28;21011;-51
2022/04/09 05:55:14;;;;;;;0.40;0.30;;;;;;;12.59;95.31;94511.66;5092122;28;20425;-52
2022/04/09 05:57:43;;;;;;;0.30;0.20;;;;;;;13.54;87.51;94552.19;5092153;28;20519;-52
2022/04/09 06:00:13;;;;;;;0.30;0.20;;;;;;;14.54;78.90;94562.78;5092169;28;20510;-51
2022/04/09 06:02:41;;;;;;;0.40;0.30;;;;;;;15.10;75.01;94559.16;5091922;28;20453;-50
2022/04/09 06:05:10;;;;;;;0.90;0.90;;;;;;;14.49;73.26;94479.47;5092250;28;20758;-50
2022/04/09 06:07:38;;;;;;;0.50;0.33;;;;;;;15.74;69.59;94556.53;5091946;28;20507;-50
2022/04/09 06:10:08;;;;;;;0.60;0.50;;;;;;;15.97;67.94;94555.19;5091912;28;20548;-51
2022/04/09 06:12:38;;;;;;;0.80;0.57;;;;;;;16.41;63.87;94560.03;5091355;28;20501;-50
2022/04/09 06:15:07;;;;;;;0.90;0.50;;;;;;;16.81;61.55;94551.59;5092193;28;20424;-50
2022/04/09 06:17:37;;;;;;;0.40;0.30;;;;;;;16.46;62.27;94538.44;5091808;28;20436;-50
2022/04/09 06:20:08;;;;;;;1.17;1.07;;;;;;;15.20;66.41;94492.09;5091678;28;20425;-50
2022/04/09 06:22:38;;;;;;;0.40;0.30;;;;;;;15.86;67.52;94560.13;5092022;28;20420;-50
2022/04/09 06:25:08;;;;;;;0.40;0.30;;;;;;;16.35;62.70;94555.19;5091883;28;20917;-50
2022/04/09 06:27:40;;;;;;;0.50;0.40;;;;;;;16.61;61.11;94550.50;5091099;28;20432;-50
2022/04/09 06:30:10;;;;;;;0.53;0.50;;;;;;;16.90;57.59;94550.41;5091521;28;20853;-51
2022/04/09 06:32:38;;;;;;;0.63;0.63;;;;;;;17.29;57.23;94538.44;5091960;28;20496;-51
2022/04/09 06:35:07;;;;;;;0.50;0.50;;;;;;;17.04;58.70;94540.25;5091617;28;20995;-51
2022/04/09 06:37:38;;;;;;;0.67;0.67;;;;;;;17.39;59.54;94535.34;5091535;28;20455;-52
2022/04/09 06:40:09;;;;;;;0.57;0.57;;;;;;;17.26;57.13;94531.06;5092009;28;20507;-50
2022/04/09 06:42:40;;;;;;;0.50;0.40;;;;;;;16.89;56.11;94511.41;5091882;28;20532;-52
2022/04/09 06:45:09;;;;;;;0.40;0.30;;;;;;;17.18;54.13;94537.28;5091896;28;20595;-51
2022/04/09 06:47:38;;;;;;;7.60;0.87;;;;;;;17.17;55.25;94524.22;5091549;28;20917;-51
2022/04/09 06:50:08;;;;;;;0.50;0.50;;;;;;;16.92;58.92;94526.81;5091771;28;20438;-51
2022/04/09 06:52:37;;;;;;;0.40;0.20;;;;;;;17.06;57.93;94527.31;5091625;28;20472;-51
2022/04/09 06:55:06;;;;;;;0.40;0.30;;;;;;;16.19;57.76;94527.44;5091407;28;20421;-52
2022/04/09 06:57:35;;;;;;;0.60;0.30;;;;;;;16.68;56.84;94526.66;5091300;28;20456;-52
2022/04/09 07:00:08;;;;;;;0.40;0.30;;;;;;;17.49;53.18;94529.56;5091520;28;20485;-52
2022/04/09 07:02:36;;;;;;;2.27;1.27;;;;;;;17.24;53.75;94516.44;5091693;28;20471;-52
2022/04/09 07:05:05;;;;;;;0.40;0.30;;;;;;;16.62;54.19;94484.41;5091562;28;20416;-52
2022/04/09 07:07:34;;;;;;;1.27;1.27;;;;;;;16.76;55.04;94523.16;5091262;28;21092;-52
2022/04/09 07:10:08;;;;;;;0.50;0.30;;;;;;;16.46;56.25;94534.97;5091212;28;20610;-52
2022/04/09 07:12:37;;;;;;;0.40;0.20;;;;;;;17.27;56.28;94521.13;5091237;28;20507;-53
2022/04/09 07:15:09;;;;;;;0.50;0.40;;;;;;;17.33;53.38;94519.81;5091226;28;20463;-54
2022/04/09 07:17:38;;;;;;;0.60;0.33;;;;;;;17.67;53.66;94506.06;5091351;28;20515;-52
2022/04/09 07:20:08;;;;;;;2.77;1.90;;;;;;;17.52;55.46;94526.25;5091575;28;20424;-54
2022/04/09 07:22:38;;;;;;;0.60;0.43;;;;;;;17.83;54.54;94440.00;5090881;28;21021;-52
2022/04/09 07:25:08;;;;;;;6.30;0.90;;;;;;;17.41;55.91;94526.97;5091308;28;20416;-55
2022/04/09 07:27:37;;;;;;;0.50;0.50;;;;;;;18.60;53.37;94511.34;5091149;28;20458;-55
2022/04/09 07:30:09;;;;;;;0.50;0.30;;;;;;;19.05;50.49;94519.16;5091311;28;20421;-56
2022/04/09 07:32:38;;;;;;;5.00;1.63;;;;;;;18.74;49.85;94525.19;5091385;28;20467;-56
2022/04/09 07:35:08;;;;;;;1.00;0.40;;;;;;;19.88;47.92;94519.09;5090336;28;20920;-56
2022/04/09 07:37:41;;;;;;;0.30;0.20;;;;;;;20.82;44.31;94502.84;5091344;28;20497;-56
2022/04/09 07:40:12;;;;;;;1.03;0.93;;;;;;;19.72;43.92;94450.31;5092639;28;20429;-56
2022/04/09 07:42:41;;;;;;;0.40;0.30;;;;;;;20.35;45.89;94510.22;5094724;28;20463;-56
2022/04/09 07:45:12;;;;;;;0.40;0.30;;;;;;;20.84;43.89;94514.03;5094653;28;20889;-57
2022/04/09 07:47:42;;;;;;;0.60;0.57;;;;;;;20.54;41.65;94461.84;5094627;28;20990;-57
2022/04/09 07:50:11;;;;;;;0.50;0.40;;;;;;;21.77;40.89;94514.69;5094998;28;20455;-56
2022/04/09 07:52:42;;;;;;;0.53;0.40;;;;;;;20.99;43.83;94359.63;5094615;28;20471;-56
2022/04/09 07:55:14;;;;;;;0.50;0.40;;;;;;;21.96;39.45;94452.63;5094730;28;20420;-56
2022/04/09 07:57:43;;;;;;;0.40;0.20;;;;;;;23.00;35.47;94443.66;5094123;28;20506;-56
2022/04/09 08:00:15;;;;;;;0.40;0.30;;;;;;;22.99;36.01;94447.53;5094632;28;20489;-56
2022/04/09 08:02:44;;;;;;;0.57;0.47;;;;;;;22.47;35.23;94499.69;5094784;28;20448;-55
2022/04/09 08:05:12;;;;;;;6.60;0.40;;;;;;;21.76;38.03;94505.81;5094428;28;20485;-56
2022/04/09 08:07:42;;;;;;;0.40;0.30;;;;;;;21.85;39.39;94506.41;5094685;28;20501;-55
2022/04/09 08:10:12;;;;;;;0.33;0.20;;;;;;;22.44;35.55;94495.00;5093924;28;20527;-55
2022/04/09 08:12:41;;;;;;;0.57;0.50;;;;;;;22.69;35.23;94493.44;5094185;28;20413;-53
2022/04/09 08:15:11;;;;;;;0.50;0.40;;;;;;;22.50;36.95;94412.53;5093913;28;20969;-54
2022/04/09 08:17:46;;;;;;;1.10;0.60;;;;;;;22.94;36.42;94484.91;5094036;28;20416;-53
2022/04/09 08:20:14;;;;;;;0.40;0.40;;;;;;;22.84;34.29;94409.91;5094413;28;20501;-54
2022/04/09 08:22:43;;;;;;;0.47;0.30;;;;;;;23.63;35.55;94470.66;5094363;28;20468;-54
2022/04/09 08:25:11;;;;;;;0.50;0.40;;;;;;;23.42;33.29;94483.19;5093995;28;20443;-55
2022/04/09 08:27:42;;;;;;;0.40;0.30;;;;;;;23.93;33.70;94478.69;5093922;28;20467;-55
2022/04/09 08:30:12;;;;;;;0.40;0.30;;;;;;;23.52;35.96;94466.28;5094204;28;20511;-54
2022/04/09 08:32:40;;;;;;;0.40;0.30;;;;;;;23.24;35.58;94462.13;5093812;28;20421;-54
2022/04/09 08:35:10;;;;;;;0.40;0.40;;;;;;;24.49;34.30;94443.91;5093765;28;20456;-53
2022/04/09 08:37:40;;;;;;;0.50;0.40;;;;;;;25.52;31.82;94460.66;5093904;28;20440;-54
2022/04/09 08:40:14;;;;;;;0.40;0.30;;;;;;;26.52;30.30;94445.97;5093725;28;20420;-54
2022/04/09 08:42:44;;;;;;;0.40;0.37;;;;;;;26.48;30.12;94435.91;5093785;28;20451;-54
2022/04/09 08:45:12;;;;;;;0.70;0.70;;;;;;;26.42;29.02;94442.09;5093747;28;20520;-53
2022/04/09 08:47:43;;;;;;;2.43;0.40;;;;;;;27.07;29.86;94434.16;5093641;28;20424;-53
2022/04/09 08:50:14;;;;;;;0.40;0.33;;;;;;;27.53;27.98;94444.84;5093911;28;20433;-53
2022/04/09 08:52:44;;;;;;;0.40;0.30;;;;;;;26.65;28.50;94444.38;5093458;28;20481;-53
2022/04/09 08:55:13;;;;;;;0.40;0.30;;;;;;;26.02;30.45;94432.41;5093900;28;20620;-53
2022/04/09 08:57:42;;;;;;;0.30;0.30;;;;;;;27.18;30.05;94427.91;5093435;28;20819;-54
2022/04/09 09:00:13;;;;;;;0.30;0.30;;;;;;;26.97;30.21;94428.75;5093282;28;20454;-53
2022/04/09 09:02:50;;;;;;;2.90;0.40;;;;;;;27.70;29.56;94433.06;5093271;28;20424;-54
2022/04/09 09:05:31;;;;;;;0.40;0.30;;;;;;;27.93;27.86;94402.56;5093684;28;20428;-54
2022/04/09 09:08:00;;;;;;;2.50;0.33;;;;;;;29.49;27.82;94424.34;5093268;28;20432;-54
2022/04/09 09:10:28;;;;;;;0.90;0.90;;;;;;;28.37;26.96;94418.19;5092188;28;20533;-54
2022/04/09 09:13:03;;;;;;;0.40;0.40;;;;;;;28.42;27.30;94436.03;5092836;28;20443;-54
2022/04/09 09:15:45;;;;;;;1.63;0.30;;;;;;;25.98;29.17;94407.19;5092079;28;20887;-55
2022/04/09 09:18:20;;;;;;;0.40;0.30;;;;;;;27.00;26.04;94389.91;5093173;28;20435;-54
2022/04/09 09:20:52;;;;;;;0.80;0.40;;;;;;;28.53;26.39;94399.34;5093152;28;20553;-53
2022/04/09 09:23:21;;;;;;;0.30;0.20;;;;;;;28.55;25.11;94399.69;5092980;28;20523;-55
2022/04/09 09:25:50;;;;;;;2.93;0.33;;;;;;;28.09;28.07;94389.25;5093321;28;20432;-54
2022/04/09 09:28:26;;;;;;;0.40;0.37;;;;;;;27.89;26.23;94377.31;5092973;28;20432;-54
2022/04/09 09:30:55;;;;;;;2.17;0.50;;;;;;;27.91;24.23;94398.69;5093159;28;20481;-54
2022/04/09 09:33:26;;;;;;;2.40;0.70;;;;;;;27.69;23.81;94382.53;5093026;28;20465;-54
2022/04/09 09:36:15;;;;;;;0.40;0.30;;;;;;;27.49;26.06;94373.34;5092673;28;20435;-54
2022/04/09 09:38:45;;;;;;;0.40;0.30;;;;;;;25.90;26.75;94391.28;5092769;28;20460;-54
2022/04/09 09:41:24;;;;;;;1.33;0.40;;;;;;;27.48;23.81;94371.78;5092578;28;20937;-54
2022/04/09 09:44:03;;;;;;;1.43;0.30;;;;;;;27.39;22.84;94370.69;5092626;28;20425;-54
2022/04/09 09:46:31;;;;;;;0.40;0.40;;;;;;;27.63;22.71;94367.78;5092483;28;20985;-54
2022/04/09 09:49:00;;;;;;;0.30;0.20;;;;;;;27.05;23.49;94373.97;5092298;28;20510;-54
2022/04/09 09:51:30;;;;;;;0.50;0.50;;;;;;;27.12;23.09;94391.44;5092255;28;20432;-53
2022/04/09 09:54:06;;;;;;;0.40;0.33;;;;;;;26.69;23.93;94360.91;5092305;28;20464;-54
2022/04/09 09:56:36;;;;;;;0.30;0.20;;;;;;;28.04;22.42;94372.53;5092217;28;20456;-54
2022/04/09 09:59:06;;;;;;;0.40;0.30;;;;;;;28.27;22.08;94356.38;5092629;28;20481;-54
2022/04/09 10:01:39;;;;;;;0.50;0.30;;;;;;;28.09;22.32;94353.03;5092293;28;20428;-54
2022/04/09 10:04:11;;;;;;;0.40;0.30;;;;;;;28.85;21.03;94358.09;5091569;28;20416;-54
2022/04/09 10:06:43;;;;;;;0.40;0.30;;;;;;;28.95;20.73;94341.59;5092429;28;20428;-54
2022/04/09 10:09:15;;;;;;;0.50;0.50;;;;;;;29.61;20.43;94335.59;5091869;28;20452;-54
2022/04/09 10:11:49;;;;;;;0.40;0.30;;;;;;;29.29;19.90;94317.00;5092070;28;20440;-54
2022/04/09 10:14:23;;;;;;;0.40;0.30;;;;;;;28.86;20.09;94333.16;5092079;28;20563;-54
2022/04/09 10:16:52;;;;;;;0.40;0.30;;;;;;;27.69;21.72;94322.63;5091973;28;20428;-55
2022/04/09 10:19:25;;;;;;;0.40;0.30;;;;;;;28.76;20.47;94323.16;5092445;28;20421;-54
2022/04/09 10:21:57;;;;;;;0.30;0.20;;;;;;;28.67;20.86;94330.25;5091450;28;20435;-54
2022/04/09 10:24:28;;;;;;;0.30;0.30;;;;;;;28.23;21.92;94309.31;5091825;28;20465;-54
2022/04/09 10:26:58;;;;;;;0.40;0.37;;;;;;;29.20;21.27;94316.72;5091946;28;20460;-54
2022/04/09 10:29:26;;;;;;;0.40;0.30;;;;;;;29.12;20.19;94300.84;5092177;28;20436;-55
2022/04/09 10:31:55;;;;;;;0.30;0.20;;;;;;;28.41;20.92;94318.09;5091936;28;20420;-54
2022/04/09 10:34:23;;;;;;;0.60;0.40;;;;;;;28.65;21.04;94306.13;5091557;28;21065;-54
2022/04/09 10:37:04;;;;;;;1.10;1.00;;;;;;;28.32;21.07;94299.47;5091598;28;20420;-54
2022/04/09 10:39:46;;;;;;;0.63;0.63;;;;;;;29.03;20.05;94295.88;5091824;28;20435;-54
2022/04/09 10:42:47;;;;;;;0.40;0.30;;;;;;;29.46;20.38;94296.06;5092094;28;20421;-54
2022/04/09 10:45:16;;;;;;;0.30;0.30;;;;;;;28.31;21.36;94288.97;5091250;28;20432;-54
2022/04/09 10:48:07;;;;;;;0.60;0.57;;;;;;;30.02;19.91;94277.97;5091976;28;20521;-54
2022/04/09 10:50:57;;;;;;;0.50;0.40;;;;;;;29.84;19.79;94280.25;5092016;28;20432;-54
2022/04/09 10:53:29;;;;;;;0.40;0.30;;;;;;;30.33;20.11;94273.09;5092045;28;20431;-54
2022/04/09 10:56:20;;;;;;;3.20;1.27;;;;;;;29.86;20.55;94256.78;5091445;28;20471;-54
2022/04/09 10:59:09;;;;;;;0.40;0.30;;;;;;;30.28;19.81;94257.97;5091989;28;20493;-55
2022/04/09 11:01:50;;;;;;;0.60;0.30;;;;;;;28.75;20.69;94258.84;5091846;28;20427;-54
2022/04/09 11:04:41;;;;;;;0.40;0.30;;;;;;;29.26;20.54;94251.53;5091587;28;20428;-54
2022/04/09 11:07:12;;;;;;;0.40;0.30;;;;;;;29.61;19.68;94264.59;5091568;28;20452;-54
2022/04/09 11:09:47;;;;;;;0.60;0.30;;;;;;;29.52;19.68;94267.84;5091405;28;20511;-54
2022/04/09 11:12:19;;;;;;;0.40;0.30;;;;;;;29.91;19.41;94263.72;5091595;28;20810;-54
2022/04/09 11:14:50;;;;;;;3.23;1.17;;;;;;;28.77;20.71;94251.03;5093767;28;20468;-54
2022/04/09 11:17:20;;;;;;;3.63;0.40;;;;;;;28.74;19.92;94251.84;5095353;28;20519;-55
2022/04/09 11:19:50;;;;;;;0.40;0.30;;;;;;;29.20;20.10;94253.94;5095192;28;20478;-55
2022/04/09 11:22:19;;;;;;;6.63;0.30;;;;;;;28.94;21.04;94247.28;5095444;28;20413;-55
2022/04/09 11:24:49;;;;;;;1.17;0.80;;;;;;;29.41;20.59;94248.16;5095007;28;20792;-55
2022/04/09 11:27:17;;;;;;;0.43;0.33;;;;;;;29.49;20.52;94249.59;5094307;28;20447;-55
2022/04/09 11:29:46;;;;;;;0.30;0.20;;;;;;;29.83;19.79;94245.94;5095532;28;20428;-55
2022/04/09 11:32:19;;;;;;;0.50;0.33;;;;;;;30.10;20.17;94250.09;5094439;28;20486;-55
2022/04/09 11:34:49;;;;;;;0.40;0.33;;;;;;;28.95;20.59;94239.88;5095363;28;20541;-55
2022/04/09 11:37:18;;;;;;;1.13;0.50;;;;;;;29.92;19.84;94244.19;5094968;28;20471;-55
2022/04/09 11:39:50;;;;;;;0.93;0.93;;;;;;;30.32;19.49;94234.06;5094881;28;20431;-55
2022/04/09 11:42:19;;;;;;;0.70;0.40;;;;;;;27.96;21.06;94211.09;5094893;28;20424;-53
2022/04/09 11:44:51;;;;;;;1.03;0.30;;;;;;;28.72;21.73;94209.81;5095107;28;20436;-53
2022/04/09 11:47:23;;;;;;;0.40;0.30;;;;;;;30.17;19.53;94232.78;5095174;28;20443;-52
2022/04/09 11:49:54;;;;;;;0.30;0.30;;;;;;;29.42;20.06;94175.97;5094796;28;20470;-53